Time;durP1;ratioP1;P1;durP2;ratioP2;P2;SDS_P1;SDS_P2;PMS_P1;PMS_P2;Temp;Humidity;BMP_temperature;BMP_pressure;BME280_temperature;BME280_humidity;BME280_pressure;Samples;Min_cycle;Max_cycle;Signal;HPM_P1;HPM_P2
2023/07/31 00:00:03;;;;;;;;;;;16.20;99.90;;;;;;8429910;28;19931;-71
2023/07/31 00:04:05;;;;;;;;;;;16.20;99.90;;;;;;8407730;28;19924;-71
2023/07/31 00:08:07;;;;;;;;;;;16.20;99.90;;;;;;8396697;28;20310;-71
2023/07/31 00:12:09;;;;;;;;;;;16.30;99.90;;;;;;8420866;28;19983;-71
2023/07/31 00:16:10;;;;;;;;;;;16.30;99.90;;;;;;8412862;28;19924;-71
2023/07/31 00:20:12;;;;;;;;;;;16.40;99.90;;;;;;8407572;28;20014;-71
2023/07/31 00:24:13;;;;;;;;;;;16.40;99.90;;;;;;8419130;28;19932;-70
2023/07/31 00:28:15;;;;;;;;;;;16.50;99.90;;;;;;8407689;28;20368;-71
2023/07/31 00:32:17;;;;;;;;;;;16.60;99.90;;;;;;8416700;28;19978;-71
2023/07/31 00:36:19;;;;;;;;;;;16.80;99.90;;;;;;8430828;28;19932;-71
2023/07/31 00:40:21;;;;;;;;;;;16.90;99.90;;;;;;8409041;28;19924;-70
2023/07/31 00:44:22;;;;;;;;;;;16.90;99.90;;;;;;8430475;28;20436;-70
2023/07/31 00:48:24;;;;;;;;;;;17.00;99.90;;;;;;8429169;28;19935;-70
2023/07/31 00:52:26;;;;;;;;;;;17.00;99.90;;;;;;8428000;28;19950;-71
2023/07/31 00:56:28;;;;;;;;;;;17.10;99.90;;;;;;8419951;28;19936;-71
2023/07/31 01:00:30;;;;;;;;;;;17.10;99.90;;;;;;8423375;28;19923;-71
2023/07/31 01:04:31;;;;;;;;;;;17.10;99.90;;;;;;8400278;28;19925;-70
2023/07/31 01:08:52;;;;;;;;;;;17.10;99.90;;;;;;8422313;28;19931;-71
2023/07/31 01:12:55;;;;;;;;;;;17.10;99.90;;;;;;8425039;28;19932;-70
2023/07/31 01:16:57;;;;;;;;;;;17.10;99.90;;;;;;8420141;28;19931;-71
2023/07/31 01:21:06;;;;;;;;;;;17.10;99.90;;;;;;8424080;28;19928;-71
2023/07/31 01:25:27;;;;;;;;;;;17.10;99.90;;;;;;8414421;28;20305;-71
2023/07/31 01:29:33;;;;;;;;;;;17.10;99.90;;;;;;8402202;28;19924;-71
2023/07/31 01:33:34;;;;;;;;;;;17.10;99.90;;;;;;8427421;28;20359;-71
2023/07/31 01:37:36;;;;;;;;;;;17.10;99.90;;;;;;8415830;28;19950;-71
2023/07/31 01:41:38;;;;;;;;;;;17.10;99.90;;;;;;8404264;28;19931;-71
2023/07/31 01:45:40;;;;;;;;;;;17.10;99.90;;;;;;8417213;28;19977;-70
2023/07/31 01:49:41;;;;;;;;;;;17.10;99.90;;;;;;8404071;28;19928;-70
2023/07/31 01:53:43;;;;;;;;;;;17.00;99.90;;;;;;8422009;28;20385;-70
2023/07/31 01:57:45;;;;;;;;;;;17.00;99.90;;;;;;8424061;28;19928;-71
2023/07/31 02:01:46;;;;;;;;;;;17.00;99.90;;;;;;8425167;28;19984;-71
2023/07/31 02:05:48;;;;;;;;;;;16.90;99.90;;;;;;8409676;28;20257;-70
2023/07/31 02:09:50;;;;;;;;;;;16.90;99.90;;;;;;8416119;28;20375;-71
2023/07/31 02:13:52;;;;;;;;;;;16.90;99.90;;;;;;8422482;28;19931;-70
2023/07/31 02:17:53;;;;;;;;;;;16.90;99.90;;;;;;8418164;28;20387;-71
2023/07/31 02:21:55;;;;;;;;;;;16.90;99.90;;;;;;8427400;28;20018;-70
2023/07/31 02:25:57;;;;;;;;;;;16.90;99.90;;;;;;8411338;28;19978;-71
2023/07/31 02:29:59;;;;;;;;;;;16.90;99.90;;;;;;8417897;28;20375;-71
2023/07/31 02:34:01;;;;;;;;;;;16.80;99.90;;;;;;8402034;28;19924;-71
2023/07/31 02:38:03;;;;;;;;;;;16.90;99.90;;;;;;8423838;28;19925;-72
2023/07/31 02:42:04;;;;;;;;;;;16.90;99.90;;;;;;8422367;28;19924;-71
2023/07/31 02:46:06;;;;;;;;;;;16.90;99.90;;;;;;8407622;28;19982;-71
2023/07/31 02:50:08;;;;;;;;;;;16.90;99.90;;;;;;8428237;28;20358;-71
2023/07/31 02:54:10;;;;;;;;;;;16.90;99.90;;;;;;8431267;28;19935;-71
2023/07/31 02:58:11;;;;;;;;;;;16.80;99.90;;;;;;8431243;28;19928;-71
2023/07/31 03:27:12;;;;;;;;;;;16.80;99.90;;;;;;8364675;28;19929;-71
2023/07/31 03:31:14;;;;;;;;;;;16.80;99.90;;;;;;8363665;28;19925;-71
2023/07/31 03:35:15;;;;;;;;;;;16.80;99.90;;;;;;8353314;28;20184;-71
2023/07/31 03:39:17;;;;;;;;;;;16.80;99.90;;;;;;8354471;28;20277;-71
2023/07/31 03:43:19;;;;;;;;;;;16.80;99.90;;;;;;8352328;28;19925;-71
2023/07/31 03:47:20;;;;;;;;;;;16.80;99.90;;;;;;8355888;28;19979;-71
2023/07/31 03:51:22;;;;;;;;;;;16.80;99.90;;;;;;8361153;28;20376;-71
2023/07/31 03:55:24;;;;;;;;;;;16.80;99.90;;;;;;8362636;28;19925;-71
2023/07/31 03:59:25;;;;;;;;;;;16.80;99.90;;;;;;8358533;28;20296;-71
2023/07/31 04:03:27;;;;;;;;;;;16.80;99.90;;;;;;8352081;28;20335;-71
2023/07/31 04:07:29;;;;;;;;;;;16.80;99.90;;;;;;8349139;28;19959;-71
2023/07/31 04:11:30;;;;;;;;;;;16.80;99.90;;;;;;8347904;28;19936;-70
2023/07/31 04:15:32;;;;;;;;;;;16.80;99.90;;;;;;8358694;28;19969;-71
2023/07/31 04:24:31;;;;;;;;;;;16.90;99.90;;;;;;8377933;28;20387;-71
2023/07/31 04:28:32;;;;;;;;;;;16.90;99.90;;;;;;8430798;28;19928;-71
2023/07/31 04:32:35;;;;;;;;;;;16.90;99.90;;;;;;8416598;28;19928;-71
2023/07/31 04:36:37;;;;;;;;;;;16.90;99.90;;;;;;8421549;28;20326;-72
2023/07/31 04:40:39;;;;;;;;;;;16.90;99.90;;;;;;8423230;28;20444;-71
2023/07/31 04:44:40;;;;;;;;;;;16.90;99.90;;;;;;8405737;28;19932;-71
2023/07/31 04:48:42;;;;;;;;;;;16.90;99.90;;;;;;8403382;28;19928;-72
2023/07/31 04:52:44;;;;;;;;;;;16.90;99.90;;;;;;8405842;28;19935;-70
2023/07/31 04:56:45;;;;;;;;;;;16.90;99.90;;;;;;8409885;28;20292;-71
2023/07/31 05:00:47;;;;;;;;;;;16.80;99.90;;;;;;8419065;28;19931;-71
2023/07/31 05:04:49;;;;;;;;;;;16.90;99.90;;;;;;8429572;28;19924;-71
2023/07/31 05:08:50;;;;;;;;;;;16.90;99.90;;;;;;8391546;28;19936;-71
2023/07/31 05:12:52;;;;;;;;;;;16.80;99.90;;;;;;8420428;28;20371;-71
2023/07/31 05:16:54;;;;;;;;;;;16.80;99.90;;;;;;8427759;28;19935;-71
2023/07/31 05:20:55;;;;;;;;;;;16.70;99.90;;;;;;8401386;28;19924;-71
2023/07/31 05:24:57;;;;;;;;;;;16.60;99.90;;;;;;8412014;28;19931;-71
2023/07/31 05:28:59;;;;;;;;;;;16.50;99.90;;;;;;8406370;28;19924;-71
2023/07/31 05:33:00;;;;;;;;;;;16.50;99.90;;;;;;8427067;28;19955;-71
2023/07/31 05:37:02;;;;;;;;;;;16.40;99.90;;;;;;8404018;28;20419;-71
2023/07/31 05:41:04;;;;;;;;;;;16.40;99.90;;;;;;8425637;28;19931;-71
2023/07/31 05:45:06;;;;;;;;;;;16.40;99.90;;;;;;8420704;28;19924;-71
2023/07/31 05:49:08;;;;;;;;;;;16.40;99.90;;;;;;8405215;28;19989;-70
2023/07/31 05:53:10;;;;;;;;;;;16.40;99.90;;;;;;8417886;28;19974;-71
2023/07/31 05:57:12;;;;;;;;;;;16.40;99.90;;;;;;8420029;28;19935;-71
2023/07/31 06:01:14;;;;;;;;;;;16.40;99.90;;;;;;8423260;28;19924;-71
2023/07/31 06:05:16;;;;;;;;;;;16.40;99.90;;;;;;8421177;28;19924;-71
2023/07/31 06:09:18;;;;;;;;;;;16.40;99.90;;;;;;8425715;28;19924;-70
2023/07/31 06:13:19;;;;;;;;;;;16.40;99.90;;;;;;8408482;28;20380;-71
2023/07/31 06:17:21;;;;;;;;;;;16.40;99.90;;;;;;8399170;28;19935;-71
2023/07/31 06:21:23;;;;;;;;;;;16.40;99.90;;;;;;8395067;28;20042;-71
2023/07/31 06:25:24;;;;;;;;;;;16.40;99.90;;;;;;8406858;28;19928;-70
2023/07/31 06:29:26;;;;;;;;;;;16.40;99.90;;;;;;8416259;28;19925;-71
2023/07/31 06:33:28;;;;;;;;;;;16.40;99.90;;;;;;8420934;28;19924;-71
2023/07/31 06:37:29;;;;;;;;;;;16.50;99.90;;;;;;8426091;28;19924;-71
2023/07/31 06:41:31;;;;;;;;;;;16.50;99.90;;;;;;8425793;28;19928;-71
2023/07/31 06:45:33;;;;;;;;;;;16.50;99.90;;;;;;8419340;28;20449;-71
2023/07/31 06:49:35;;;;;;;;;;;16.50;99.90;;;;;;8402834;28;19977;-71
2023/07/31 06:53:36;;;;;;;;;;;16.50;99.90;;;;;;8405166;28;19924;-70
2023/07/31 06:57:38;;;;;;;;;;;16.60;99.90;;;;;;8426737;28;20376;-71
2023/07/31 07:01:40;;;;;;;;;;;16.60;99.90;;;;;;8412509;28;20433;-70
2023/07/31 07:05:41;;;;;;;;;;;16.60;99.90;;;;;;8398707;28;19983;-71
2023/07/31 07:09:43;;;;;;;;;;;16.70;99.90;;;;;;8422976;28;20474;-71
2023/07/31 07:13:45;;;;;;;;;;;16.70;99.90;;;;;;8422789;28;20008;-70
2023/07/31 07:17:47;;;;;;;;;;;16.80;99.90;;;;;;8403111;28;19988;-71
2023/07/31 07:21:48;;;;;;;;;;;16.80;99.90;;;;;;8409947;28;20474;-71
2023/07/31 07:25:51;;;;;;;;;;;16.80;99.90;;;;;;8416764;28;19938;-71
2023/07/31 07:29:53;;;;;;;;;;;16.80;99.90;;;;;;8401304;28;19932;-71
2023/07/31 07:33:55;;;;;;;;;;;16.80;99.90;;;;;;8420904;28;19924;-71
2023/07/31 07:37:57;;;;;;;;;;;16.80;99.90;;;;;;8417729;28;19924;-71
2023/07/31 07:41:59;;;;;;;;;;;16.90;99.90;;;;;;8430977;28;20767;-71
2023/07/31 07:46:00;;;;;;;;;;;16.90;99.90;;;;;;8424995;28;20351;-71
2023/07/31 07:50:02;;;;;;;;;;;16.90;99.90;;;;;;8427727;28;19931;-71
2023/07/31 07:54:04;;;;;;;;;;;17.00;99.90;;;;;;8430792;28;20328;-71
2023/07/31 07:58:06;;;;;;;;;;;17.00;99.90;;;;;;8406452;28;19946;-71
2023/07/31 08:02:07;;;;;;;;;;;17.00;99.90;;;;;;8421668;28;19977;-71
2023/07/31 08:06:09;;;;;;;;;;;17.10;99.90;;;;;;8413798;28;19967;-70
2023/07/31 08:10:11;;;;;;;;;;;17.00;99.90;;;;;;8401698;28;19986;-70
2023/07/31 08:14:13;;;;;;;;;;;17.10;99.90;;;;;;8400297;28;19924;-71
2023/07/31 08:18:15;;;;;;;;;;;17.10;99.90;;;;;;8393552;28;19932;-71
2023/07/31 08:22:17;;;;;;;;;;;17.10;99.90;;;;;;8400103;28;20284;-71
2023/07/31 08:26:19;;;;;;;;;;;17.20;99.90;;;;;;8396303;28;20197;-71
2023/07/31 08:30:21;;;;;;;;;;;17.30;99.90;;;;;;8396321;28;19986;-70
2023/07/31 08:34:23;;;;;;;;;;;17.30;99.90;;;;;;8382091;28;19928;-71
2023/07/31 08:38:25;;;;;;;;;;;17.30;99.90;;;;;;8404885;28;20401;-70
2023/07/31 08:42:27;;;;;;;;;;;17.30;99.90;;;;;;8401997;28;20369;-71
2023/07/31 08:46:31;;;;;;;;;;;17.30;99.90;;;;;;8395907;28;19936;-70
2023/07/31 08:50:32;;;;;;;;;;;17.30;99.90;;;;;;8400900;28;19924;-71
2023/07/31 08:54:34;;;;;;;;;;;17.40;99.90;;;;;;8399145;28;20102;-71
2023/07/31 08:58:37;;;;;;;;;;;17.40;99.90;;;;;;8384512;28;20460;-70
2023/07/31 09:02:50;;;;;;;;;;;17.50;99.90;;;;;;8406166;28;19954;-71
2023/07/31 09:06:56;;;;;;;;;;;17.40;99.90;;;;;;8401083;28;20367;-71
2023/07/31 09:11:03;;;;;;;;;;;17.50;99.90;;;;;;8387395;28;19929;-70
2023/07/31 09:15:05;;;;;;;;;;;17.40;99.90;;;;;;8391448;28;19929;-71
2023/07/31 09:19:06;;;;;;;;;;;17.40;99.90;;;;;;8398327;28;19924;-70
2023/07/31 09:23:12;;;;;;;;;;;17.40;99.90;;;;;;8401689;28;19928;-71
2023/07/31 09:27:13;;;;;;;;;;;17.50;99.90;;;;;;8400934;28;19928;-70
2023/07/31 09:31:15;;;;;;;;;;;17.60;99.90;;;;;;8394863;28;19924;-71
2023/07/31 09:35:21;;;;;;;;;;;17.60;99.90;;;;;;8402515;28;19931;-71
2023/07/31 09:39:23;;;;;;;;;;;17.60;99.90;;;;;;8411799;28;20437;-71
2023/07/31 09:43:24;;;;;;;;;;;17.70;99.90;;;;;;8376459;28;20312;-71
2023/07/31 09:47:26;;;;;;;;;;;17.80;99.90;;;;;;8402861;28;20380;-71
2023/07/31 09:51:28;;;;;;;;;;;17.80;99.90;;;;;;8395028;28;19924;-71
2023/07/31 09:55:31;;;;;;;;;;;17.90;99.90;;;;;;8395568;28;19936;-71
2023/07/31 09:59:33;;;;;;;;;;;17.90;99.90;;;;;;8401586;28;19966;-70
2023/07/31 10:03:34;;;;;;;;;;;17.80;99.90;;;;;;8394193;28;19928;-71
2023/07/31 10:07:40;;;;;;;;;;;17.90;99.90;;;;;;8394432;28;19931;-71
2023/07/31 10:11:50;;;;;;;;;;;17.90;99.90;;;;;;8400902;28;19932;-71
2023/07/31 10:15:52;;;;;;;;;;;17.90;99.90;;;;;;8391673;28;19986;-71
2023/07/31 10:19:53;;;;;;;;;;;18.00;99.90;;;;;;8399227;28;20051;-71
2023/07/31 10:23:55;;;;;;;;;;;18.10;99.90;;;;;;8401021;28;19935;-71
2023/07/31 10:27:57;;;;;;;;;;;18.10;99.90;;;;;;8398335;28;20372;-71
2023/07/31 10:31:59;;;;;;;;;;;18.10;99.90;;;;;;8400236;28;19927;-71
2023/07/31 10:36:17;;;;;;;;;;;18.10;99.90;;;;;;8399855;28;20326;-71
2023/07/31 10:40:22;;;;;;;;;;;18.20;99.90;;;;;;8401687;28;19957;-71
2023/07/31 10:44:24;;;;;;;;;;;18.20;99.90;;;;;;8392843;28;19925;-71
2023/07/31 10:48:32;;;;;;;;;;;18.20;99.90;;;;;;8394043;28;19924;-71
2023/07/31 10:52:34;;;;;;;;;;;18.30;99.90;;;;;;8399841;28;19935;-71
2023/07/31 10:56:37;;;;;;;;;;;18.30;99.90;;;;;;8402816;28;20288;-71
2023/07/31 11:00:43;;;;;;;;;;;18.30;99.90;;;;;;8410711;28;19934;-71
2023/07/31 11:05:05;;;;;;;;;;;18.40;99.90;;;;;;8407141;28;19968;-71
2023/07/31 11:09:06;;;;;;;;;;;18.30;99.90;;;;;;8403881;28;19931;-71
2023/07/31 11:13:08;;;;;;;;;;;18.20;99.90;;;;;;8403327;28;20335;-71
2023/07/31 11:17:10;;;;;;;;;;;18.20;99.90;;;;;;8399427;28;19978;-71
2023/07/31 11:21:12;;;;;;;;;;;18.10;99.90;;;;;;8382964;28;20640;-72
2023/07/31 11:25:14;;;;;;;;;;;18.10;99.90;;;;;;8390730;28;19986;-71
2023/07/31 11:29:16;;;;;;;;;;;18.20;99.90;;;;;;8401535;28;19936;-71
2023/07/31 11:33:17;;;;;;;;;;;18.10;99.90;;;;;;8403103;28;19932;-71
2023/07/31 11:37:19;;;;;;;;;;;18.20;99.90;;;;;;8406998;28;20430;-71
2023/07/31 11:41:21;;;;;;;;;;;18.20;99.90;;;;;;8404387;28;19924;-71
2023/07/31 11:45:24;;;;;;;;;;;18.20;99.90;;;;;;8403383;28;19928;-70
2023/07/31 11:49:26;;;;;;;;;;;18.20;99.90;;;;;;8399106;28;20376;-71
2023/07/31 11:53:39;;;;;;;;;;;18.30;99.90;;;;;;8389902;28;19932;-71
2023/07/31 11:57:43;;;;;;;;;;;18.30;99.90;;;;;;8385683;28;19935;-70
2023/07/31 12:01:44;;;;;;;;;;;18.30;99.90;;;;;;8393845;28;19925;-70
2023/07/31 12:05:49;;;;;;;;;;;18.30;99.90;;;;;;8404884;28;19924;-71
2023/07/31 12:09:54;;;;;;;;;;;18.30;99.90;;;;;;8402313;28;20338;-71
2023/07/31 12:13:56;;;;;;;;;;;18.30;99.90;;;;;;8407998;28;20034;-70
2023/07/31 12:17:58;;;;;;;;;;;18.40;99.90;;;;;;8401377;28;19924;-71
2023/07/31 12:22:00;;;;;;;;;;;18.30;99.90;;;;;;8400386;28;20445;-70
2023/07/31 12:26:02;;;;;;;;;;;18.20;99.90;;;;;;8400905;28;19990;-71
2023/07/31 12:30:04;;;;;;;;;;;18.20;99.90;;;;;;8392777;28;19962;-71
2023/07/31 12:34:14;;;;;;;;;;;18.30;99.90;;;;;;8404995;28;19925;-71
2023/07/31 12:38:15;;;;;;;;;;;18.30;99.90;;;;;;8403234;28;19954;-71
2023/07/31 12:42:17;;;;;;;;;;;18.40;99.90;;;;;;8390611;28;20281;-71
2023/07/31 12:46:19;;;;;;;;;;;18.40;99.90;;;;;;8399657;28;19925;-71
2023/07/31 12:50:20;;;;;;;;;;;18.40;99.90;;;;;;8401136;28;19930;-71
2023/07/31 12:54:22;;;;;;;;;;;18.50;99.90;;;;;;8401184;28;19932;-71
2023/07/31 12:58:24;;;;;;;;;;;18.50;99.90;;;;;;8401549;28;19928;-71
2023/07/31 13:02:26;;;;;;;;;;;18.60;99.90;;;;;;8399446;28;19928;-71
2023/07/31 13:06:28;;;;;;;;;;;18.70;99.90;;;;;;8401008;28;19924;-71
2023/07/31 13:10:30;;;;;;;;;;;18.70;99.90;;;;;;8399542;28;19939;-71
2023/07/31 13:14:31;;;;;;;;;;;18.80;99.90;;;;;;8400160;28;19925;-70
2023/07/31 13:18:33;;;;;;;;;;;18.80;99.90;;;;;;8398938;28;20299;-71
2023/07/31 13:22:35;;;;;;;;;;;18.90;99.90;;;;;;8394767;28;19928;-71
2023/07/31 13:26:37;;;;;;;;;;;19.00;99.90;;;;;;8401741;28;19931;-71
2023/07/31 13:30:39;;;;;;;;;;;18.90;99.90;;;;;;8411661;28;19924;-71
2023/07/31 13:34:40;;;;;;;;;;;18.90;99.90;;;;;;8396035;28;19970;-71
2023/07/31 13:38:42;;;;;;;;;;;18.90;99.90;;;;;;8400942;28;19928;-70
2023/07/31 13:42:43;;;;;;;;;;;18.80;99.90;;;;;;8388271;28;19928;-71
2023/07/31 13:46:45;;;;;;;;;;;18.90;99.90;;;;;;8378649;28;19978;-71
2023/07/31 13:50:47;;;;;;;;;;;18.90;99.90;;;;;;8404211;28;19934;-71
2023/07/31 13:54:48;;;;;;;;;;;18.90;99.90;;;;;;8403223;28;19931;-71
2023/07/31 13:58:50;;;;;;;;;;;18.90;99.90;;;;;;8397891;28;20329;-71
2023/07/31 14:02:52;;;;;;;;;;;18.80;99.90;;;;;;8392318;28;19931;-71
2023/07/31 14:06:55;;;;;;;;;;;18.80;99.90;;;;;;8402971;28;20376;-71
2023/07/31 14:10:57;;;;;;;;;;;18.70;99.90;;;;;;8400493;28;19928;-71
2023/07/31 14:14:58;;;;;;;;;;;18.70;99.90;;;;;;8380914;28;19935;-71
2023/07/31 14:19:00;;;;;;;;;;;18.70;99.90;;;;;;8377130;28;19939;-70
2023/07/31 14:23:02;;;;;;;;;;;18.70;99.90;;;;;;8400970;28;19935;-71
2023/07/31 14:27:04;;;;;;;;;;;18.70;99.90;;;;;;8401807;28;19935;-71
2023/07/31 14:31:06;;;;;;;;;;;18.70;99.90;;;;;;8400114;28;19924;-71
2023/07/31 14:35:08;;;;;;;;;;;18.60;99.90;;;;;;8396693;28;20376;-71
2023/07/31 14:39:09;;;;;;;;;;;18.60;99.90;;;;;;8394377;28;19924;-71
2023/07/31 14:43:11;;;;;;;;;;;18.60;99.90;;;;;;8387237;28;19928;-71
2023/07/31 14:47:13;;;;;;;;;;;18.60;99.90;;;;;;8397089;28;19925;-70
2023/07/31 14:51:14;;;;;;;;;;;18.60;99.90;;;;;;8395195;28;20194;-71
2023/07/31 14:55:16;;;;;;;;;;;18.50;99.90;;;;;;8384280;28;19928;-71
2023/07/31 14:59:18;;;;;;;;;;;18.50;99.90;;;;;;8399004;28;19924;-71
2023/07/31 15:03:19;;;;;;;;;;;18.50;99.90;;;;;;8399882;28;19929;-71
2023/07/31 15:07:21;;;;;;;;;;;18.50;99.90;;;;;;8386029;28;19924;-71
2023/07/31 15:11:23;;;;;;;;;;;18.50;99.90;;;;;;8395112;28;19981;-71
2023/07/31 15:15:24;;;;;;;;;;;18.50;99.90;;;;;;8388033;28;19928;-70
2023/07/31 15:19:26;;;;;;;;;;;18.50;99.90;;;;;;8402451;28;19924;-72
2023/07/31 15:23:28;;;;;;;;;;;18.50;99.90;;;;;;8388567;28;19931;-71
2023/07/31 15:27:29;;;;;;;;;;;18.50;99.90;;;;;;8394230;28;20401;-71
2023/07/31 15:31:31;;;;;;;;;;;18.50;99.90;;;;;;8394831;28;19967;-71
2023/07/31 15:35:33;;;;;;;;;;;18.50;99.90;;;;;;8400643;28;19935;-71
2023/07/31 15:39:35;;;;;;;;;;;18.40;99.90;;;;;;8396378;28;19982;-71
2023/07/31 15:43:36;;;;;;;;;;;18.40;99.90;;;;;;8399538;28;19933;-70
2023/07/31 15:47:38;;;;;;;;;;;18.40;99.90;;;;;;8403244;28;19928;-71
2023/07/31 15:51:40;;;;;;;;;;;18.40;99.90;;;;;;8384675;28;19971;-70
2023/07/31 15:55:42;;;;;;;;;;;18.40;99.90;;;;;;8393462;28;19954;-70
2023/07/31 15:59:43;;;;;;;;;;;18.40;99.90;;;;;;8409734;28;20013;-71
2023/07/31 16:03:45;;;;;;;;;;;18.40;99.90;;;;;;8404424;28;19973;-70
2023/07/31 16:22:59;;;;;;;;;;;18.40;99.90;;;;;;8404573;28;19924;-71
2023/07/31 16:27:01;;;;;;;;;;;18.30;99.90;;;;;;8403575;28;19932;-71
2023/07/31 16:31:02;;;;;;;;;;;18.30;99.90;;;;;;8395492;28;19924;-71
2023/07/31 16:35:04;;;;;;;;;;;18.20;99.90;;;;;;8402247;28;20375;-71
2023/07/31 16:39:06;;;;;;;;;;;18.20;99.90;;;;;;8393225;28;19928;-70
2023/07/31 16:43:08;;;;;;;;;;;18.20;99.90;;;;;;8397717;28;20433;-71
2023/07/31 16:47:09;;;;;;;;;;;18.20;99.90;;;;;;8405425;28;19986;-71
2023/07/31 16:51:11;;;;;;;;;;;18.20;99.90;;;;;;8399008;28;20242;-71
2023/07/31 16:55:13;;;;;;;;;;;18.10;99.90;;;;;;8384910;28;19941;-71
2023/07/31 16:59:18;;;;;;;;;;;18.10;99.90;;;;;;8418336;28;19924;-71
2023/07/31 17:03:19;;;;;;;;;;;18.10;99.90;;;;;;8402096;28;19928;-71
2023/07/31 17:07:22;;;;;;;;;;;18.10;99.90;;;;;;8406258;28;19982;-71
2023/07/31 17:11:23;;;;;;;;;;;18.10;99.90;;;;;;8400682;28;20265;-71
2023/07/31 17:15:25;;;;;;;;;;;18.10;99.90;;;;;;8388302;28;19977;-71
2023/07/31 17:19:27;;;;;;;;;;;18.10;99.90;;;;;;8398101;28;20380;-71
2023/07/31 17:23:28;;;;;;;;;;;18.10;99.90;;;;;;8402413;28;19924;-71
2023/07/31 17:27:30;;;;;;;;;;;18.10;99.90;;;;;;8406577;28;19932;-71
2023/07/31 17:31:34;;;;;;;;;;;18.10;99.90;;;;;;8404312;28;19924;-71
2023/07/31 17:35:36;;;;;;;;;;;18.20;99.90;;;;;;8402356;28;20403;-71
2023/07/31 17:39:38;;;;;;;;;;;18.20;99.90;;;;;;8401361;28;20273;-71
2023/07/31 17:43:39;;;;;;;;;;;18.20;99.90;;;;;;8402952;28;20261;-71
2023/07/31 17:47:41;;;;;;;;;;;18.20;99.90;;;;;;8402662;28;19924;-71
2023/07/31 17:51:43;;;;;;;;;;;18.20;99.90;;;;;;8378729;28;19947;-71
2023/07/31 17:55:44;;;;;;;;;;;18.20;99.90;;;;;;8396111;28;19997;-71
2023/07/31 17:59:47;;;;;;;;;;;18.20;99.90;;;;;;8400644;28;20314;-71
2023/07/31 18:03:50;;;;;;;;;;;18.20;99.90;;;;;;8397321;28;19924;-71
2023/07/31 18:07:51;;;;;;;;;;;18.20;99.90;;;;;;8383662;28;20011;-71
2023/07/31 18:11:53;;;;;;;;;;;18.20;99.90;;;;;;8402178;28;19924;-71
2023/07/31 18:15:55;;;;;;;;;;;18.20;99.90;;;;;;8402337;28;20283;-71
2023/07/31 18:19:56;;;;;;;;;;;18.20;99.90;;;;;;8401866;28;19924;-71
2023/07/31 18:23:59;;;;;;;;;;;18.20;99.90;;;;;;8402696;28;19932;-72
2023/07/31 18:28:01;;;;;;;;;;;18.20;99.90;;;;;;8394757;28;19928;-72
2023/07/31 18:32:03;;;;;;;;;;;18.20;99.90;;;;;;8404074;28;20052;-71
2023/07/31 18:36:04;;;;;;;;;;;18.20;99.90;;;;;;8401620;28;19931;-72
2023/07/31 18:40:06;;;;;;;;;;;18.20;99.90;;;;;;8403065;28;19933;-71
2023/07/31 18:44:08;;;;;;;;;;;18.20;99.90;;;;;;8389943;28;19965;-71
2023/07/31 18:58:17;;;;;;;;;;;18.20;99.90;;;;;;8403160;28;20307;-71
2023/07/31 19:02:18;;;;;;;;;;;18.20;99.90;;;;;;8402262;28;19928;-71
2023/07/31 19:06:20;;;;;;;;;;;18.10;99.90;;;;;;8405180;28;19936;-71
2023/07/31 19:10:22;;;;;;;;;;;18.20;99.90;;;;;;8404157;28;19925;-71
2023/07/31 19:14:24;;;;;;;;;;;18.20;99.90;;;;;;8401178;28;19928;-71
2023/07/31 19:18:25;;;;;;;;;;;18.20;99.90;;;;;;8408865;28;19977;-71
2023/07/31 19:22:27;;;;;;;;;;;18.10;99.90;;;;;;8408421;28;19928;-71
2023/07/31 19:26:29;;;;;;;;;;;18.00;99.90;;;;;;8407645;28;19928;-71
2023/07/31 19:30:31;;;;;;;;;;;18.00;99.90;;;;;;8406080;28;19947;-71
2023/07/31 19:34:32;;;;;;;;;;;17.90;99.90;;;;;;8409063;28;19924;-71
2023/07/31 19:38:34;;;;;;;;;;;17.80;99.90;;;;;;8406452;28;19924;-71
2023/07/31 19:42:36;;;;;;;;;;;17.70;99.90;;;;;;8408888;28;19928;-71
2023/07/31 19:46:38;;;;;;;;;;;17.70;99.90;;;;;;8406010;28;20372;-71
2023/07/31 19:50:40;;;;;;;;;;;17.70;99.90;;;;;;8387144;28;19924;-71
2023/07/31 19:54:41;;;;;;;;;;;17.70;99.90;;;;;;8405053;28;20001;-71
2023/07/31 19:58:43;;;;;;;;;;;17.70;99.90;;;;;;8399373;28;19928;-71
2023/07/31 20:02:45;;;;;;;;;;;17.70;99.90;;;;;;8407315;28;19929;-71
2023/07/31 20:06:46;;;;;;;;;;;17.70;99.90;;;;;;8414113;28;19924;-71
2023/07/31 20:10:48;;;;;;;;;;;17.70;99.90;;;;;;8398660;28;19924;-71
2023/07/31 20:14:50;;;;;;;;;;;17.80;99.90;;;;;;8410216;28;19932;-71
2023/07/31 20:18:51;;;;;;;;;;;17.80;99.90;;;;;;8402997;28;19928;-71
2023/07/31 20:22:53;;;;;;;;;;;17.80;99.90;;;;;;8398231;28;19928;-71
2023/07/31 20:26:55;;;;;;;;;;;17.80;99.90;;;;;;8406007;28;19924;-71
2023/07/31 20:30:57;;;;;;;;;;;17.80;99.90;;;;;;8404858;28;20470;-71
2023/07/31 20:34:58;;;;;;;;;;;17.80;99.90;;;;;;8402391;28;20002;-71
2023/07/31 20:39:00;;;;;;;;;;;17.80;99.90;;;;;;8397255;28;19977;-71
2023/07/31 20:43:02;;;;;;;;;;;17.80;99.90;;;;;;8405396;28;19986;-71
2023/07/31 20:47:04;;;;;;;;;;;17.80;99.90;;;;;;8385913;28;20287;-71
2023/07/31 20:51:05;;;;;;;;;;;17.80;99.90;;;;;;8408734;28;19928;-71
2023/07/31 20:55:07;;;;;;;;;;;17.80;99.90;;;;;;8405857;28;19928;-71
2023/07/31 20:59:09;;;;;;;;;;;17.70;99.90;;;;;;8408212;28;19978;-71
2023/07/31 21:03:11;;;;;;;;;;;17.70;99.90;;;;;;8403004;28;19924;-71
2023/07/31 21:07:14;;;;;;;;;;;17.70;99.90;;;;;;8406995;28;19924;-71
2023/07/31 21:11:16;;;;;;;;;;;17.60;99.90;;;;;;8409226;28;20022;-71
2023/07/31 21:15:18;;;;;;;;;;;17.70;99.90;;;;;;8422833;28;19973;-71
2023/07/31 21:24:23;;;;;;;;;;;17.70;99.90;;;;;;8418910;28;19965;-71
2023/07/31 21:28:25;;;;;;;;;;;17.70;99.90;;;;;;8410204;28;19935;-71
2023/07/31 21:32:27;;;;;;;;;;;17.70;99.90;;;;;;8416868;28;19928;-71
2023/07/31 21:36:28;;;;;;;;;;;17.70;99.90;;;;;;8407978;28;19973;-71
2023/07/31 21:40:30;;;;;;;;;;;17.70;99.90;;;;;;8419044;28;19928;-71
2023/07/31 21:44:32;;;;;;;;;;;17.70;99.90;;;;;;8410029;28;19931;-71
2023/07/31 21:48:33;;;;;;;;;;;17.70;99.90;;;;;;8419619;28;20380;-71
2023/07/31 21:52:35;;;;;;;;;;;17.60;99.90;;;;;;8408416;28;19931;-71
2023/07/31 21:56:37;;;;;;;;;;;17.60;99.90;;;;;;8427399;28;19928;-71
2023/07/31 22:00:39;;;;;;;;;;;17.60;99.90;;;;;;8407229;28;20294;-71
2023/07/31 22:04:43;;;;;;;;;;;17.60;99.90;;;;;;8408447;28;19931;-71
2023/07/31 22:08:45;;;;;;;;;;;17.50;99.90;;;;;;8415449;28;19924;-71
2023/07/31 22:12:48;;;;;;;;;;;17.50;99.90;;;;;;8402682;28;20394;-71
2023/07/31 22:16:50;;;;;;;;;;;17.50;99.90;;;;;;8423508;28;20329;-71
2023/07/31 22:20:52;;;;;;;;;;;17.50;99.90;;;;;;8425439;28;20081;-71
2023/07/31 22:24:53;;;;;;;;;;;17.50;99.90;;;;;;8400725;28;20315;-71
2023/07/31 22:28:55;;;;;;;;;;;17.50;99.90;;;;;;8428464;28;19924;-71
2023/07/31 22:32:57;;;;;;;;;;;17.50;99.90;;;;;;8398658;28;20353;-71
2023/07/31 22:36:58;;;;;;;;;;;17.40;99.90;;;;;;8417391;28;19992;-71
2023/07/31 22:41:01;;;;;;;;;;;17.50;99.90;;;;;;8421784;28;19977;-71
2023/07/31 22:45:03;;;;;;;;;;;17.50;99.90;;;;;;8422869;28;20330;-71
2023/07/31 22:49:04;;;;;;;;;;;17.40;99.90;;;;;;8407949;28;19925;-71
2023/07/31 22:53:06;;;;;;;;;;;17.40;99.90;;;;;;8430381;28;19928;-71
2023/07/31 22:57:07;;;;;;;;;;;17.40;99.90;;;;;;8429454;28;19928;-71
2023/07/31 23:01:10;;;;;;;;;;;17.40;99.90;;;;;;8413943;28;19931;-71
2023/07/31 23:05:11;;;;;;;;;;;17.30;99.90;;;;;;8411867;28;19928;-71
2023/07/31 23:09:13;;;;;;;;;;;17.20;99.90;;;;;;8416352;28;19924;-71
2023/07/31 23:13:15;;;;;;;;;;;17.00;99.90;;;;;;8434522;28;19924;-71
2023/07/31 23:17:17;;;;;;;;;;;16.90;99.90;;;;;;8417649;28;20375;-72
2023/07/31 23:21:19;;;;;;;;;;;16.80;99.90;;;;;;8409478;28;19924;-72
2023/07/31 23:25:20;;;;;;;;;;;16.80;99.90;;;;;;8417658;28;19958;-72
2023/07/31 23:29:22;;;;;;;;;;;16.80;99.90;;;;;;8425394;28;19925;-72
2023/07/31 23:33:24;;;;;;;;;;;16.80;99.90;;;;;;8411682;28;19924;-72
2023/07/31 23:37:25;;;;;;;;;;;16.80;99.90;;;;;;8413072;28;19924;-72
2023/07/31 23:41:27;;;;;;;;;;;16.90;99.90;;;;;;8402852;28;19928;-72
2023/07/31 23:45:29;;;;;;;;;;;16.90;99.90;;;;;;8419018;28;19924;-72
2023/07/31 23:49:30;;;;;;;;;;;16.90;99.90;;;;;;8428575;28;20368;-72
2023/07/31 23:53:32;;;;;;;;;;;16.90;99.90;;;;;;8432632;28;19977;-72
2023/07/31 23:57:34;;;;;;;;;;;16.90;99.90;;;;;;8431581;28;19935;-72
